sensor_id;sensor_type;location;lat;lon;timestamp;temperature;humidity
27671;DHT22;15077;49.704;9.908;2024-02-21T00:01:40;11.20;65.80
27671;DHT22;15077;49.704;9.908;2024-02-21T00:04:05;11.20;65.70
27671;DHT22;15077;49.704;9.908;2024-02-21T00:06:31;11.20;65.70
27671;DHT22;15077;49.704;9.908;2024-02-21T00:08:57;11.20;65.70
27671;DHT22;15077;49.704;9.908;2024-02-21T00:11:23;11.20;65.60
27671;DHT22;15077;49.704;9.908;2024-02-21T00:13:49;11.20;65.60
27671;DHT22;15077;49.704;9.908;2024-02-21T00:16:16;11.20;65.60
27671;DHT22;15077;49.704;9.908;2024-02-21T00:18:43;11.20;65.70
27671;DHT22;15077;49.704;9.908;2024-02-21T00:21:11;11.20;65.70
27671;DHT22;15077;49.704;9.908;2024-02-21T00:23:46;11.20;65.90
27671;DHT22;15077;49.704;9.908;2024-02-21T00:26:14;11.20;65.90
27671;DHT22;15077;49.704;9.908;2024-02-21T00:28:41;11.20;65.90
27671;DHT22;15077;49.704;9.908;2024-02-21T00:31:07;11.20;66.00
27671;DHT22;15077;49.704;9.908;2024-02-21T00:33:34;11.20;66.00
27671;DHT22;15077;49.704;9.908;2024-02-21T00:36:01;11.20;66.00
27671;DHT22;15077;49.704;9.908;2024-02-21T00:38:27;11.20;66.00
27671;DHT22;15077;49.704;9.908;2024-02-21T00:40:52;11.20;65.90
27671;DHT22;15077;49.704;9.908;2024-02-21T00:43:18;11.20;65.90
27671;DHT22;15077;49.704;9.908;2024-02-21T00:45:49;11.20;65.90
27671;DHT22;15077;49.704;9.908;2024-02-21T00:48:16;11.20;66.00
27671;DHT22;15077;49.704;9.908;2024-02-21T00:50:42;11.10;65.90
27671;DHT22;15077;49.704;9.908;2024-02-21T00:53:08;11.20;66.00
27671;DHT22;15077;49.704;9.908;2024-02-21T00:55:33;11.20;65.90
27671;DHT22;15077;49.704;9.908;2024-02-21T00:57:59;11.10;65.90
27671;DHT22;15077;49.704;9.908;2024-02-21T01:00:25;11.10;65.90
27671;DHT22;15077;49.704;9.908;2024-02-21T01:02:50;11.10;65.90
27671;DHT22;15077;49.704;9.908;2024-02-21T01:05:16;11.10;65.90
27671;DHT22;15077;49.704;9.908;2024-02-21T01:07:41;11.10;66.10
27671;DHT22;15077;49.704;9.908;2024-02-21T01:10:07;11.10;66.10
27671;DHT22;15077;49.704;9.908;2024-02-21T01:12:33;11.10;66.10
27671;DHT22;15077;49.704;9.908;2024-02-21T01:14:59;11.10;66.10
27671;DHT22;15077;49.704;9.908;2024-02-21T01:17:24;11.10;66.20
27671;DHT22;15077;49.704;9.908;2024-02-21T01:19:50;11.10;66.30
27671;DHT22;15077;49.704;9.908;2024-02-21T01:22:16;11.10;66.70
27671;DHT22;15077;49.704;9.908;2024-02-21T01:24:41;11.00;66.80
27671;DHT22;15077;49.704;9.908;2024-02-21T01:27:07;11.00;66.30
27671;DHT22;15077;49.704;9.908;2024-02-21T01:29:33;11.00;66.50
27671;DHT22;15077;49.704;9.908;2024-02-21T01:31:58;11.00;66.60
27671;DHT22;15077;49.704;9.908;2024-02-21T01:34:24;11.00;66.40
27671;DHT22;15077;49.704;9.908;2024-02-21T01:36:50;10.90;66.50
27671;DHT22;15077;49.704;9.908;2024-02-21T01:39:15;10.90;66.50
27671;DHT22;15077;49.704;9.908;2024-02-21T01:41:41;10.90;66.50
27671;DHT22;15077;49.704;9.908;2024-02-21T01:44:06;10.90;66.80
27671;DHT22;15077;49.704;9.908;2024-02-21T01:46:32;10.90;66.80
27671;DHT22;15077;49.704;9.908;2024-02-21T01:48:59;10.90;66.70
27671;DHT22;15077;49.704;9.908;2024-02-21T01:51:25;10.90;66.90
27671;DHT22;15077;49.704;9.908;2024-02-21T01:53:51;10.90;67.10
27671;DHT22;15077;49.704;9.908;2024-02-21T01:56:18;10.90;67.00
27671;DHT22;15077;49.704;9.908;2024-02-21T01:58:44;10.80;67.00
27671;DHT22;15077;49.704;9.908;2024-02-21T02:01:12;10.90;67.10
27671;DHT22;15077;49.704;9.908;2024-02-21T02:03:38;10.90;67.10
27671;DHT22;15077;49.704;9.908;2024-02-21T02:06:04;10.90;67.10
27671;DHT22;15077;49.704;9.908;2024-02-21T02:08:32;10.90;67.10
27671;DHT22;15077;49.704;9.908;2024-02-21T02:10:58;10.90;67.10
27671;DHT22;15077;49.704;9.908;2024-02-21T02:13:24;10.90;67.10
27671;DHT22;15077;49.704;9.908;2024-02-21T02:15:50;10.90;67.50
27671;DHT22;15077;49.704;9.908;2024-02-21T02:18:16;10.90;67.40
27671;DHT22;15077;49.704;9.908;2024-02-21T02:20:43;10.90;67.60
27671;DHT22;15077;49.704;9.908;2024-02-21T02:23:11;10.90;67.50
27671;DHT22;15077;49.704;9.908;2024-02-21T02:25:39;10.90;67.70
27671;DHT22;15077;49.704;9.908;2024-02-21T02:28:05;10.90;67.50
27671;DHT22;15077;49.704;9.908;2024-02-21T02:30:32;10.90;67.60
27671;DHT22;15077;49.704;9.908;2024-02-21T02:32:59;10.90;67.90
27671;DHT22;15077;49.704;9.908;2024-02-21T02:35:25;10.90;67.90
27671;DHT22;15077;49.704;9.908;2024-02-21T02:37:51;10.90;68.00
27671;DHT22;15077;49.704;9.908;2024-02-21T02:40:17;10.90;68.30
27671;DHT22;15077;49.704;9.908;2024-02-21T02:42:43;10.80;68.40
27671;DHT22;15077;49.704;9.908;2024-02-21T02:45:09;10.80;68.30
27671;DHT22;15077;49.704;9.908;2024-02-21T02:47:35;10.80;68.40
27671;DHT22;15077;49.704;9.908;2024-02-21T02:50:01;10.80;68.60
27671;DHT22;15077;49.704;9.908;2024-02-21T02:52:26;10.80;68.50
27671;DHT22;15077;49.704;9.908;2024-02-21T02:54:52;10.80;68.40
27671;DHT22;15077;49.704;9.908;2024-02-21T02:57:20;10.80;68.50
27671;DHT22;15077;49.704;9.908;2024-02-21T02:59:50;10.80;68.50
27671;DHT22;15077;49.704;9.908;2024-02-21T03:02:16;10.70;68.70
27671;DHT22;15077;49.704;9.908;2024-02-21T03:04:43;10.70;68.60
27671;DHT22;15077;49.704;9.908;2024-02-21T03:07:09;10.70;68.60
27671;DHT22;15077;49.704;9.908;2024-02-21T03:09:38;10.70;68.80
27671;DHT22;15077;49.704;9.908;2024-02-21T03:12:05;10.80;68.70
27671;DHT22;15077;49.704;9.908;2024-02-21T03:14:32;10.80;68.70
27671;DHT22;15077;49.704;9.908;2024-02-21T03:16:58;10.70;68.50
27671;DHT22;15077;49.704;9.908;2024-02-21T03:19:24;10.70;68.60
27671;DHT22;15077;49.704;9.908;2024-02-21T03:21:50;10.70;68.70
27671;DHT22;15077;49.704;9.908;2024-02-21T03:24:16;10.70;68.80
27671;DHT22;15077;49.704;9.908;2024-02-21T03:26:42;10.70;68.70
27671;DHT22;15077;49.704;9.908;2024-02-21T03:29:07;10.70;69.00
27671;DHT22;15077;49.704;9.908;2024-02-21T03:31:34;10.70;68.90
27671;DHT22;15077;49.704;9.908;2024-02-21T03:34:00;10.70;68.70
27671;DHT22;15077;49.704;9.908;2024-02-21T03:36:26;10.70;68.70
27671;DHT22;15077;49.704;9.908;2024-02-21T03:38:52;10.70;68.80
27671;DHT22;15077;49.704;9.908;2024-02-21T03:41:17;10.70;68.90
27671;DHT22;15077;49.704;9.908;2024-02-21T03:43:43;10.70;68.80
27671;DHT22;15077;49.704;9.908;2024-02-21T03:46:08;10.70;68.90
27671;DHT22;15077;49.704;9.908;2024-02-21T03:48:35;10.70;68.70
27671;DHT22;15077;49.704;9.908;2024-02-21T03:51:01;10.70;68.80
27671;DHT22;15077;49.704;9.908;2024-02-21T03:53:26;10.70;68.70
27671;DHT22;15077;49.704;9.908;2024-02-21T03:55:53;10.70;68.50
27671;DHT22;15077;49.704;9.908;2024-02-21T03:58:20;10.70;69.40
27671;DHT22;15077;49.704;9.908;2024-02-21T04:00:45;10.70;68.90
27671;DHT22;15077;49.704;9.908;2024-02-21T04:03:11;10.70;69.00
27671;DHT22;15077;49.704;9.908;2024-02-21T04:05:37;10.70;69.00
27671;DHT22;15077;49.704;9.908;2024-02-21T04:08:05;10.70;68.90
27671;DHT22;15077;49.704;9.908;2024-02-21T04:10:31;10.70;68.90
27671;DHT22;15077;49.704;9.908;2024-02-21T04:12:57;10.70;68.90
27671;DHT22;15077;49.704;9.908;2024-02-21T04:15:23;10.70;69.00
27671;DHT22;15077;49.704;9.908;2024-02-21T04:17:48;10.70;68.90
27671;DHT22;15077;49.704;9.908;2024-02-21T04:20:15;10.70;68.80
27671;DHT22;15077;49.704;9.908;2024-02-21T04:22:44;10.70;69.40
27671;DHT22;15077;49.704;9.908;2024-02-21T04:25:10;10.60;69.20
27671;DHT22;15077;49.704;9.908;2024-02-21T04:27:36;10.60;69.40
27671;DHT22;15077;49.704;9.908;2024-02-21T04:30:03;10.60;69.10
27671;DHT22;15077;49.704;9.908;2024-02-21T04:32:29;10.60;69.40
27671;DHT22;15077;49.704;9.908;2024-02-21T04:34:55;10.60;69.50
27671;DHT22;15077;49.704;9.908;2024-02-21T04:37:20;10.60;69.60
27671;DHT22;15077;49.704;9.908;2024-02-21T04:39:46;10.50;69.40
27671;DHT22;15077;49.704;9.908;2024-02-21T04:42:13;10.50;69.60
27671;DHT22;15077;49.704;9.908;2024-02-21T04:44:38;10.50;69.30
27671;DHT22;15077;49.704;9.908;2024-02-21T04:47:04;10.50;69.20
27671;DHT22;15077;49.704;9.908;2024-02-21T04:49:30;10.50;69.20
27671;DHT22;15077;49.704;9.908;2024-02-21T04:51:55;10.50;69.20
27671;DHT22;15077;49.704;9.908;2024-02-21T04:54:21;10.50;69.10
27671;DHT22;15077;49.704;9.908;2024-02-21T04:56:47;10.50;69.00
27671;DHT22;15077;49.704;9.908;2024-02-21T04:59:12;10.50;69.10
27671;DHT22;15077;49.704;9.908;2024-02-21T05:01:38;10.50;69.00
27671;DHT22;15077;49.704;9.908;2024-02-21T05:04:03;10.50;68.90
27671;DHT22;15077;49.704;9.908;2024-02-21T05:06:29;10.40;69.00
27671;DHT22;15077;49.704;9.908;2024-02-21T05:08:55;10.40;68.80
27671;DHT22;15077;49.704;9.908;2024-02-21T05:11:23;10.40;68.80
27671;DHT22;15077;49.704;9.908;2024-02-21T05:13:49;10.40;68.70
27671;DHT22;15077;49.704;9.908;2024-02-21T05:16:15;10.40;68.60
27671;DHT22;15077;49.704;9.908;2024-02-21T05:18:41;10.40;68.60
27671;DHT22;15077;49.704;9.908;2024-02-21T05:21:08;10.40;68.80
27671;DHT22;15077;49.704;9.908;2024-02-21T05:23:33;10.40;68.80
27671;DHT22;15077;49.704;9.908;2024-02-21T05:25:59;10.40;68.70
27671;DHT22;15077;49.704;9.908;2024-02-21T05:28:24;10.40;68.70
27671;DHT22;15077;49.704;9.908;2024-02-21T05:30:50;10.40;68.80
27671;DHT22;15077;49.704;9.908;2024-02-21T05:33:16;10.30;69.00
27671;DHT22;15077;49.704;9.908;2024-02-21T05:35:46;10.30;69.00
27671;DHT22;15077;49.704;9.908;2024-02-21T05:38:13;10.30;69.00
27671;DHT22;15077;49.704;9.908;2024-02-21T05:40:39;10.30;69.10
27671;DHT22;15077;49.704;9.908;2024-02-21T05:43:05;10.30;69.00
27671;DHT22;15077;49.704;9.908;2024-02-21T05:45:32;10.20;69.40
27671;DHT22;15077;49.704;9.908;2024-02-21T05:47:57;10.20;69.30
27671;DHT22;15077;49.704;9.908;2024-02-21T05:50:23;10.20;69.30
27671;DHT22;15077;49.704;9.908;2024-02-21T05:52:52;10.20;69.70
27671;DHT22;15077;49.704;9.908;2024-02-21T05:55:19;10.10;69.70
27671;DHT22;15077;49.704;9.908;2024-02-21T05:57:45;10.10;69.70
27671;DHT22;15077;49.704;9.908;2024-02-21T06:00:11;10.10;69.60
27671;DHT22;15077;49.704;9.908;2024-02-21T06:02:37;10.10;69.90
27671;DHT22;15077;49.704;9.908;2024-02-21T06:05:02;10.10;69.60
27671;DHT22;15077;49.704;9.908;2024-02-21T06:07:28;10.10;69.80
27671;DHT22;15077;49.704;9.908;2024-02-21T06:09:54;10.00;69.50
27671;DHT22;15077;49.704;9.908;2024-02-21T06:12:19;10.10;69.60
27671;DHT22;15077;49.704;9.908;2024-02-21T06:14:45;10.00;69.40
27671;DHT22;15077;49.704;9.908;2024-02-21T06:17:10;10.00;69.50
27671;DHT22;15077;49.704;9.908;2024-02-21T06:19:39;10.10;69.40
27671;DHT22;15077;49.704;9.908;2024-02-21T06:22:06;10.00;69.30
27671;DHT22;15077;49.704;9.908;2024-02-21T06:24:33;10.10;69.20
27671;DHT22;15077;49.704;9.908;2024-02-21T06:27:00;10.00;69.10
27671;DHT22;15077;49.704;9.908;2024-02-21T06:29:25;10.10;69.00
27671;DHT22;15077;49.704;9.908;2024-02-21T06:31:51;10.10;69.00
27671;DHT22;15077;49.704;9.908;2024-02-21T06:34:17;10.10;68.90
27671;DHT22;15077;49.704;9.908;2024-02-21T06:36:42;10.10;68.90
27671;DHT22;15077;49.704;9.908;2024-02-21T06:39:10;10.10;68.80
27671;DHT22;15077;49.704;9.908;2024-02-21T06:41:37;10.10;68.80
27671;DHT22;15077;49.704;9.908;2024-02-21T06:44:02;10.10;68.80
27671;DHT22;15077;49.704;9.908;2024-02-21T06:46:28;10.10;68.80
27671;DHT22;15077;49.704;9.908;2024-02-21T06:48:55;10.10;68.70
27671;DHT22;15077;49.704;9.908;2024-02-21T06:51:25;10.10;68.70
27671;DHT22;15077;49.704;9.908;2024-02-21T06:53:52;10.10;68.70
27671;DHT22;15077;49.704;9.908;2024-02-21T06:56:18;10.10;68.80
27671;DHT22;15077;49.704;9.908;2024-02-21T06:58:43;10.10;68.80
27671;DHT22;15077;49.704;9.908;2024-02-21T07:01:09;10.10;68.80
27671;DHT22;15077;49.704;9.908;2024-02-21T07:03:36;10.10;69.00
27671;DHT22;15077;49.704;9.908;2024-02-21T07:06:01;10.10;68.90
27671;DHT22;15077;49.704;9.908;2024-02-21T07:08:27;10.10;69.20
27671;DHT22;15077;49.704;9.908;2024-02-21T07:10:53;10.10;69.70
27671;DHT22;15077;49.704;9.908;2024-02-21T07:13:19;10.10;69.60
27671;DHT22;15077;49.704;9.908;2024-02-21T07:15:45;10.10;69.50
27671;DHT22;15077;49.704;9.908;2024-02-21T07:18:11;10.10;69.60
27671;DHT22;15077;49.704;9.908;2024-02-21T07:20:37;10.10;69.50
27671;DHT22;15077;49.704;9.908;2024-02-21T07:23:03;10.10;69.50
27671;DHT22;15077;49.704;9.908;2024-02-21T07:25:29;10.10;69.40
27671;DHT22;15077;49.704;9.908;2024-02-21T07:27:54;10.20;69.50
27671;DHT22;15077;49.704;9.908;2024-02-21T07:30:20;10.20;69.50
27671;DHT22;15077;49.704;9.908;2024-02-21T07:32:48;10.20;69.40
27671;DHT22;15077;49.704;9.908;2024-02-21T07:35:15;10.20;69.40
27671;DHT22;15077;49.704;9.908;2024-02-21T07:37:40;10.20;69.40
27671;DHT22;15077;49.704;9.908;2024-02-21T07:40:06;10.20;69.30
27671;DHT22;15077;49.704;9.908;2024-02-21T07:42:37;10.20;69.30
27671;DHT22;15077;49.704;9.908;2024-02-21T07:45:03;10.20;69.30
27671;DHT22;15077;49.704;9.908;2024-02-21T07:47:29;10.20;69.20
27671;DHT22;15077;49.704;9.908;2024-02-21T07:49:54;10.20;69.20
27671;DHT22;15077;49.704;9.908;2024-02-21T07:52:20;10.30;69.20
27671;DHT22;15077;49.704;9.908;2024-02-21T07:54:45;10.30;69.30
27671;DHT22;15077;49.704;9.908;2024-02-21T07:57:11;10.30;69.30
27671;DHT22;15077;49.704;9.908;2024-02-21T07:59:37;10.30;69.30
27671;DHT22;15077;49.704;9.908;2024-02-21T08:02:02;10.30;69.20
27671;DHT22;15077;49.704;9.908;2024-02-21T08:04:32;10.30;69.30
27671;DHT22;15077;49.704;9.908;2024-02-21T08:06:58;10.30;69.20
27671;DHT22;15077;49.704;9.908;2024-02-21T08:09:26;10.40;69.20
27671;DHT22;15077;49.704;9.908;2024-02-21T08:11:53;10.40;69.20
27671;DHT22;15077;49.704;9.908;2024-02-21T08:14:20;10.40;69.20
27671;DHT22;15077;49.704;9.908;2024-02-21T08:16:46;10.40;69.50
27671;DHT22;15077;49.704;9.908;2024-02-21T08:19:12;10.40;69.30
27671;DHT22;15077;49.704;9.908;2024-02-21T08:21:38;10.40;69.30
27671;DHT22;15077;49.704;9.908;2024-02-21T08:24:04;10.40;69.20
27671;DHT22;15077;49.704;9.908;2024-02-21T08:26:30;10.40;69.30
27671;DHT22;15077;49.704;9.908;2024-02-21T08:28:56;10.50;70.10
27671;DHT22;15077;49.704;9.908;2024-02-21T08:31:28;10.50;69.70
27671;DHT22;15077;49.704;9.908;2024-02-21T08:34:00;10.50;69.70
27671;DHT22;15077;49.704;9.908;2024-02-21T08:36:35;10.50;69.70
27671;DHT22;15077;49.704;9.908;2024-02-21T08:39:02;10.60;69.90
27671;DHT22;15077;49.704;9.908;2024-02-21T08:41:30;10.60;69.60
27671;DHT22;15077;49.704;9.908;2024-02-21T08:43:56;10.60;69.60
27671;DHT22;15077;49.704;9.908;2024-02-21T08:46:25;10.70;69.50
27671;DHT22;15077;49.704;9.908;2024-02-21T08:48:52;10.70;69.70
27671;DHT22;15077;49.704;9.908;2024-02-21T08:51:18;10.80;69.50
27671;DHT22;15077;49.704;9.908;2024-02-21T08:53:44;10.80;69.40
27671;DHT22;15077;49.704;9.908;2024-02-21T08:56:10;10.90;69.40
27671;DHT22;15077;49.704;9.908;2024-02-21T08:58:36;10.90;69.40
27671;DHT22;15077;49.704;9.908;2024-02-21T09:01:02;11.00;69.20
27671;DHT22;15077;49.704;9.908;2024-02-21T09:03:32;11.00;69.30
27671;DHT22;15077;49.704;9.908;2024-02-21T09:05:59;11.10;69.30
27671;DHT22;15077;49.704;9.908;2024-02-21T09:08:25;11.10;69.30
27671;DHT22;15077;49.704;9.908;2024-02-21T09:10:51;11.20;69.40
27671;DHT22;15077;49.704;9.908;2024-02-21T09:13:17;11.20;69.20
27671;DHT22;15077;49.704;9.908;2024-02-21T09:15:43;11.30;69.10
27671;DHT22;15077;49.704;9.908;2024-02-21T09:18:09;11.30;69.00
27671;DHT22;15077;49.704;9.908;2024-02-21T09:20:34;11.40;68.90
27671;DHT22;15077;49.704;9.908;2024-02-21T09:23:00;11.40;69.50
27671;DHT22;15077;49.704;9.908;2024-02-21T09:25:26;11.50;68.90
27671;DHT22;15077;49.704;9.908;2024-02-21T09:27:53;11.50;68.80
27671;DHT22;15077;49.704;9.908;2024-02-21T09:30:19;11.60;68.80
27671;DHT22;15077;49.704;9.908;2024-02-21T09:32:45;11.60;68.10
27671;DHT22;15077;49.704;9.908;2024-02-21T09:35:12;11.60;68.30
27671;DHT22;15077;49.704;9.908;2024-02-21T09:37:41;11.70;68.40
27671;DHT22;15077;49.704;9.908;2024-02-21T09:40:06;11.70;68.50
27671;DHT22;15077;49.704;9.908;2024-02-21T09:42:37;11.70;68.30
27671;DHT22;15077;49.704;9.908;2024-02-21T09:45:24;11.80;68.20
27671;DHT22;15077;49.704;9.908;2024-02-21T09:50:22;11.80;67.90
27671;DHT22;15077;49.704;9.908;2024-02-21T09:52:50;11.90;68.00
27671;DHT22;15077;49.704;9.908;2024-02-21T09:55:17;11.90;67.80
27671;DHT22;15077;49.704;9.908;2024-02-21T09:57:44;11.90;67.80
27671;DHT22;15077;49.704;9.908;2024-02-21T10:00:09;11.90;67.80
27671;DHT22;15077;49.704;9.908;2024-02-21T10:02:35;12.00;67.50
27671;DHT22;15077;49.704;9.908;2024-02-21T10:05:02;12.00;67.60
27671;DHT22;15077;49.704;9.908;2024-02-21T10:07:30;12.10;67.50
27671;DHT22;15077;49.704;9.908;2024-02-21T10:10:05;12.10;67.20
27671;DHT22;15077;49.704;9.908;2024-02-21T10:12:31;12.20;67.20
27671;DHT22;15077;49.704;9.908;2024-02-21T10:15:00;12.20;67.00
27671;DHT22;15077;49.704;9.908;2024-02-21T10:17:30;12.20;67.00
27671;DHT22;15077;49.704;9.908;2024-02-21T10:20:02;12.20;67.10
27671;DHT22;15077;49.704;9.908;2024-02-21T10:22:32;12.30;67.10
27671;DHT22;15077;49.704;9.908;2024-02-21T10:25:10;12.40;67.00
27671;DHT22;15077;49.704;9.908;2024-02-21T10:27:37;12.40;66.80
27671;DHT22;15077;49.704;9.908;2024-02-21T10:30:13;12.50;66.60
27671;DHT22;15077;49.704;9.908;2024-02-21T10:32:52;12.50;66.70
27671;DHT22;15077;49.704;9.908;2024-02-21T10:35:25;12.60;66.90
27671;DHT22;15077;49.704;9.908;2024-02-21T10:37:53;12.70;66.90
27671;DHT22;15077;49.704;9.908;2024-02-21T10:40:24;12.80;67.10
27671;DHT22;15077;49.704;9.908;2024-02-21T10:43:00;12.90;66.80
27671;DHT22;15077;49.704;9.908;2024-02-21T10:45:30;13.00;66.40
27671;DHT22;15077;49.704;9.908;2024-02-21T10:48:16;13.10;66.60
27671;DHT22;15077;49.704;9.908;2024-02-21T10:58:53;13.50;65.80
27671;DHT22;15077;49.704;9.908;2024-02-21T11:01:22;13.60;64.50
27671;DHT22;15077;49.704;9.908;2024-02-21T11:03:48;13.60;64.70
27671;DHT22;15077;49.704;9.908;2024-02-21T11:06:18;13.70;64.50
27671;DHT22;15077;49.704;9.908;2024-02-21T11:08:45;13.70;63.40
27671;DHT22;15077;49.704;9.908;2024-02-21T11:11:12;13.70;64.50
27671;DHT22;15077;49.704;9.908;2024-02-21T11:13:42;13.80;64.50
27671;DHT22;15077;49.704;9.908;2024-02-21T11:16:09;13.80;63.70
27671;DHT22;15077;49.704;9.908;2024-02-21T11:18:36;13.90;64.10
27671;DHT22;15077;49.704;9.908;2024-02-21T11:21:04;13.90;64.30
27671;DHT22;15077;49.704;9.908;2024-02-21T11:23:30;14.00;62.30
27671;DHT22;15077;49.704;9.908;2024-02-21T11:26:06;14.00;63.90
27671;DHT22;15077;49.704;9.908;2024-02-21T11:28:35;14.10;63.50
27671;DHT22;15077;49.704;9.908;2024-02-21T11:31:12;14.10;63.00
27671;DHT22;15077;49.704;9.908;2024-02-21T11:33:42;14.20;63.20
27671;DHT22;15077;49.704;9.908;2024-02-21T11:36:09;14.20;63.20
27671;DHT22;15077;49.704;9.908;2024-02-21T11:38:35;14.30;63.10
27671;DHT22;15077;49.704;9.908;2024-02-21T11:41:00;14.30;63.30
27671;DHT22;15077;49.704;9.908;2024-02-21T11:43:26;14.30;62.70
27671;DHT22;15077;49.704;9.908;2024-02-21T11:45:58;14.40;61.90
27671;DHT22;15077;49.704;9.908;2024-02-21T11:48:26;14.40;62.10
27671;DHT22;15077;49.704;9.908;2024-02-21T11:50:55;14.40;62.80
27671;DHT22;15077;49.704;9.908;2024-02-21T11:53:21;14.40;62.50
27671;DHT22;15077;49.704;9.908;2024-02-21T11:55:47;14.40;62.80
27671;DHT22;15077;49.704;9.908;2024-02-21T11:58:13;14.50;61.60
27671;DHT22;15077;49.704;9.908;2024-02-21T12:00:38;14.50;62.50
27671;DHT22;15077;49.704;9.908;2024-02-21T12:03:05;14.50;60.40
27671;DHT22;15077;49.704;9.908;2024-02-21T12:05:31;14.60;61.50
27671;DHT22;15077;49.704;9.908;2024-02-21T12:07:57;14.60;61.80
27671;DHT22;15077;49.704;9.908;2024-02-21T12:10:23;14.70;61.00
27671;DHT22;15077;49.704;9.908;2024-02-21T12:12:51;14.80;61.20
27671;DHT22;15077;49.704;9.908;2024-02-21T12:15:18;14.80;61.70
27671;DHT22;15077;49.704;9.908;2024-02-21T12:17:44;14.90;61.30
27671;DHT22;15077;49.704;9.908;2024-02-21T12:20:10;14.90;61.20
27671;DHT22;15077;49.704;9.908;2024-02-21T12:22:37;14.90;60.60
27671;DHT22;15077;49.704;9.908;2024-02-21T12:25:24;14.90;60.60
27671;DHT22;15077;49.704;9.908;2024-02-21T12:27:51;15.00;61.20
27671;DHT22;15077;49.704;9.908;2024-02-21T12:30:16;15.00;60.10
27671;DHT22;15077;49.704;9.908;2024-02-21T12:32:42;14.90;60.30
27671;DHT22;15077;49.704;9.908;2024-02-21T12:35:08;14.90;59.70
27671;DHT22;15077;49.704;9.908;2024-02-21T12:37:33;14.90;60.40
27671;DHT22;15077;49.704;9.908;2024-02-21T12:39:59;14.90;60.30
27671;DHT22;15077;49.704;9.908;2024-02-21T12:42:25;14.90;60.10
27671;DHT22;15077;49.704;9.908;2024-02-21T12:44:51;14.90;60.10
27671;DHT22;15077;49.704;9.908;2024-02-21T12:47:18;14.90;60.20
27671;DHT22;15077;49.704;9.908;2024-02-21T12:49:45;14.80;59.60
27671;DHT22;15077;49.704;9.908;2024-02-21T12:52:11;14.80;59.70
27671;DHT22;15077;49.704;9.908;2024-02-21T12:54:38;14.80;59.10
27671;DHT22;15077;49.704;9.908;2024-02-21T12:57:04;14.80;59.90
27671;DHT22;15077;49.704;9.908;2024-02-21T12:59:29;14.80;59.30
27671;DHT22;15077;49.704;9.908;2024-02-21T13:01:55;14.80;59.00
27671;DHT22;15077;49.704;9.908;2024-02-21T13:04:21;14.70;59.70
27671;DHT22;15077;49.704;9.908;2024-02-21T13:06:48;14.70;60.00
27671;DHT22;15077;49.704;9.908;2024-02-21T13:09:14;14.70;59.50
27671;DHT22;15077;49.704;9.908;2024-02-21T13:11:40;14.70;60.00
27671;DHT22;15077;49.704;9.908;2024-02-21T13:14:06;14.70;60.10
27671;DHT22;15077;49.704;9.908;2024-02-21T13:16:32;14.70;60.10
27671;DHT22;15077;49.704;9.908;2024-02-21T13:19:04;14.70;59.60
27671;DHT22;15077;49.704;9.908;2024-02-21T13:21:30;14.70;60.10
27671;DHT22;15077;49.704;9.908;2024-02-21T13:23:56;14.70;59.90
27671;DHT22;15077;49.704;9.908;2024-02-21T13:26:22;14.70;59.60
27671;DHT22;15077;49.704;9.908;2024-02-21T13:28:48;14.70;59.20
27671;DHT22;15077;49.704;9.908;2024-02-21T13:31:14;14.70;59.60
27671;DHT22;15077;49.704;9.908;2024-02-21T13:33:41;14.70;60.00
27671;DHT22;15077;49.704;9.908;2024-02-21T13:36:09;14.80;60.00
27671;DHT22;15077;49.704;9.908;2024-02-21T13:38:35;14.80;59.60
27671;DHT22;15077;49.704;9.908;2024-02-21T13:41:01;14.80;58.80
27671;DHT22;15077;49.704;9.908;2024-02-21T13:43:27;14.80;59.00
27671;DHT22;15077;49.704;9.908;2024-02-21T13:45:56;14.80;58.40
27671;DHT22;15077;49.704;9.908;2024-02-21T13:48:26;14.80;58.90
27671;DHT22;15077;49.704;9.908;2024-02-21T13:50:52;14.70;58.90
27671;DHT22;15077;49.704;9.908;2024-02-21T13:53:18;14.80;58.90
27671;DHT22;15077;49.704;9.908;2024-02-21T13:55:44;14.80;58.30
27671;DHT22;15077;49.704;9.908;2024-02-21T13:58:10;14.80;58.20
27671;DHT22;15077;49.704;9.908;2024-02-21T14:00:36;14.80;58.60
27671;DHT22;15077;49.704;9.908;2024-02-21T14:03:02;14.70;58.80
27671;DHT22;15077;49.704;9.908;2024-02-21T14:05:28;14.70;59.20
27671;DHT22;15077;49.704;9.908;2024-02-21T14:07:53;14.80;58.50
27671;DHT22;15077;49.704;9.908;2024-02-21T14:10:20;14.70;59.10
27671;DHT22;15077;49.704;9.908;2024-02-21T14:12:46;14.70;58.70
27671;DHT22;15077;49.704;9.908;2024-02-21T14:15:13;14.70;58.90
27671;DHT22;15077;49.704;9.908;2024-02-21T14:17:42;14.70;59.10
27671;DHT22;15077;49.704;9.908;2024-02-21T14:20:08;14.70;59.30
27671;DHT22;15077;49.704;9.908;2024-02-21T14:22:34;14.70;59.20
27671;DHT22;15077;49.704;9.908;2024-02-21T14:25:03;14.70;59.10
27671;DHT22;15077;49.704;9.908;2024-02-21T14:27:30;14.70;58.90
27671;DHT22;15077;49.704;9.908;2024-02-21T14:29:57;14.70;58.80
27671;DHT22;15077;49.704;9.908;2024-02-21T14:32:22;14.70;58.80
27671;DHT22;15077;49.704;9.908;2024-02-21T14:34:48;14.60;58.80
27671;DHT22;15077;49.704;9.908;2024-02-21T14:37:14;14.60;58.90
27671;DHT22;15077;49.704;9.908;2024-02-21T14:39:40;14.60;59.00
27671;DHT22;15077;49.704;9.908;2024-02-21T14:42:06;14.60;59.30
27671;DHT22;15077;49.704;9.908;2024-02-21T14:44:35;14.60;59.50
27671;DHT22;15077;49.704;9.908;2024-02-21T14:47:02;14.60;59.40
27671;DHT22;15077;49.704;9.908;2024-02-21T14:49:28;14.60;59.40
27671;DHT22;15077;49.704;9.908;2024-02-21T14:51:55;14.60;59.40
27671;DHT22;15077;49.704;9.908;2024-02-21T14:54:21;14.60;58.70
27671;DHT22;15077;49.704;9.908;2024-02-21T14:56:46;14.50;58.50
27671;DHT22;15077;49.704;9.908;2024-02-21T14:59:12;14.50;59.10
27671;DHT22;15077;49.704;9.908;2024-02-21T15:01:38;14.50;59.40
27671;DHT22;15077;49.704;9.908;2024-02-21T15:04:04;14.50;59.20
27671;DHT22;15077;49.704;9.908;2024-02-21T15:06:30;14.50;59.40
27671;DHT22;15077;49.704;9.908;2024-02-21T15:08:57;14.50;59.60
27671;DHT22;15077;49.704;9.908;2024-02-21T15:11:24;14.50;59.70
27671;DHT22;15077;49.704;9.908;2024-02-21T15:13:49;14.50;59.70
27671;DHT22;15077;49.704;9.908;2024-02-21T15:16:15;14.50;59.50
27671;DHT22;15077;49.704;9.908;2024-02-21T15:18:42;14.50;59.50
27671;DHT22;15077;49.704;9.908;2024-02-21T15:21:07;14.50;59.70
27671;DHT22;15077;49.704;9.908;2024-02-21T15:23:38;14.50;60.00
27671;DHT22;15077;49.704;9.908;2024-02-21T15:26:04;14.50;60.00
27671;DHT22;15077;49.704;9.908;2024-02-21T15:28:29;14.50;59.60
27671;DHT22;15077;49.704;9.908;2024-02-21T15:30:55;14.50;59.70
27671;DHT22;15077;49.704;9.908;2024-02-21T15:33:22;14.50;59.70
27671;DHT22;15077;49.704;9.908;2024-02-21T15:35:48;14.40;59.50
27671;DHT22;15077;49.704;9.908;2024-02-21T15:38:13;14.50;59.80